createdAt,value
2019-03-01T00:01:59.226Z,4.76
2019-03-01T00:04:34.533Z,4.66
2019-03-01T00:07:40.450Z,4.74
2019-03-01T00:10:34.551Z,4.69
2019-03-01T00:13:24.004Z,4.73
2019-03-01T00:16:11.703Z,4.74
2019-03-01T00:18:50.338Z,4.76
2019-03-01T00:21:25.769Z,4.71
2019-03-01T00:24:09.807Z,4.63
2019-03-01T00:26:45.356Z,4.60
2019-03-01T00:29:38.492Z,4.59
2019-03-01T00:32:19.799Z,4.73
2019-03-01T00:35:18.206Z,4.76
2019-03-01T00:37:53.672Z,4.84
2019-03-01T00:40:32.140Z,4.71
2019-03-01T00:43:04.837Z,4.67
2019-03-01T00:45:34.465Z,4.71
2019-03-01T00:48:04.132Z,4.66
2019-03-01T00:50:33.750Z,4.64
2019-03-01T00:53:03.432Z,4.68
2019-03-01T00:55:33.087Z,4.69
2019-03-01T00:58:02.730Z,4.66
2019-03-01T01:00:38.418Z,4.66
2019-03-01T01:03:08.043Z,4.68
2019-03-01T01:05:37.701Z,4.72
2019-03-01T01:08:07.353Z,4.74
2019-03-01T01:10:37.080Z,4.76
2019-03-01T01:13:06.698Z,4.76
2019-03-01T01:15:36.369Z,4.80
2019-03-01T01:18:06.087Z,4.73
2019-03-01T01:20:35.721Z,4.73
2019-03-01T01:23:05.350Z,4.74
2019-03-01T01:25:40.137Z,4.73
2019-03-01T01:28:09.804Z,4.80
2019-03-01T01:30:39.496Z,4.81
2019-03-01T01:33:09.132Z,4.74
2019-03-01T01:35:38.773Z,4.72
2019-03-01T01:38:08.396Z,4.72
2019-03-01T01:40:38.043Z,4.81
2019-03-01T01:43:07.699Z,4.72
2019-03-01T01:45:37.406Z,4.69
2019-03-01T01:48:07.043Z,4.69
2019-03-01T01:50:36.677Z,4.69
2019-03-01T01:53:06.312Z,4.64
2019-03-01T01:55:35.970Z,4.61
2019-03-01T01:58:05.605Z,4.63
2019-03-01T02:00:35.402Z,4.61
2019-03-01T02:03:05.124Z,4.59
2019-03-01T02:05:34.768Z,4.60
2019-03-01T02:08:04.417Z,4.57
2019-03-01T02:10:35.599Z,4.57
2019-03-01T02:13:05.380Z,4.52
2019-03-01T02:15:35.067Z,4.49
2019-03-01T02:18:05.047Z,4.54
2019-03-01T02:20:34.683Z,4.49
2019-03-01T02:23:04.323Z,4.51
2019-03-01T02:25:35.792Z,4.54
2019-03-01T02:28:05.424Z,4.57
2019-03-01T02:30:42.903Z,4.52
2019-03-01T02:33:12.549Z,4.51
2019-03-01T02:35:42.506Z,4.49
2019-03-01T02:38:12.261Z,4.51
2019-03-01T02:40:41.906Z,4.56
2019-03-01T02:43:11.590Z,4.59
2019-03-01T02:45:41.320Z,4.55
2019-03-01T02:48:10.957Z,4.58
2019-03-01T02:50:40.625Z,4.62
2019-03-01T02:53:10.293Z,4.62
2019-03-01T02:55:39.916Z,4.64
2019-03-01T02:58:09.584Z,4.58
2019-03-01T03:00:39.222Z,4.55
2019-03-01T03:03:08.935Z,4.43
2019-03-01T03:05:40.227Z,4.45
2019-03-01T03:08:11.135Z,4.43
2019-03-01T03:10:40.926Z,4.45
2019-03-01T03:13:10.770Z,4.41
2019-03-01T03:15:42.416Z,4.40
2019-03-01T03:18:12.339Z,4.39
2019-03-01T03:20:42.153Z,4.30
2019-03-01T03:23:12.008Z,4.33
2019-03-01T03:25:42.273Z,4.31
2019-03-01T03:28:12.017Z,4.26
2019-03-01T03:30:41.697Z,4.33
2019-03-01T03:33:11.393Z,4.23
2019-03-01T03:35:41.029Z,4.25
2019-03-01T03:38:10.688Z,4.20
2019-03-01T03:40:41.366Z,4.20
2019-03-01T03:43:11.012Z,4.16
2019-03-01T03:45:40.654Z,4.22
2019-03-01T03:48:11.138Z,4.12
2019-03-01T03:50:40.833Z,4.10
2019-03-01T03:53:10.475Z,4.10
2019-03-01T03:55:40.149Z,4.11
2019-03-01T03:58:09.749Z,4.08
2019-03-01T04:00:39.382Z,4.03
2019-03-01T04:03:09.345Z,3.99
2019-03-01T04:05:39.057Z,3.99
2019-03-01T04:08:08.775Z,4.02
2019-03-01T04:10:38.435Z,4.02
2019-03-01T04:13:08.116Z,4.05
2019-03-01T04:15:40.776Z,4.00
2019-03-01T04:18:10.459Z,3.98
2019-03-01T04:20:40.112Z,4.03
2019-03-01T04:23:09.784Z,4.08
2019-03-01T04:25:39.438Z,4.09
2019-03-01T04:28:09.080Z,4.09
2019-03-01T04:30:38.799Z,4.11
2019-03-01T04:33:08.436Z,4.10
2019-03-01T04:35:38.059Z,4.08
2019-03-01T04:38:07.771Z,4.11
2019-03-01T04:40:37.479Z,4.14
2019-03-01T04:43:07.147Z,4.09
2019-03-01T04:45:36.783Z,4.12
2019-03-01T04:48:06.484Z,4.17
2019-03-01T04:50:36.074Z,4.17
2019-03-01T04:53:05.758Z,4.13
2019-03-01T04:55:35.398Z,4.05
2019-03-01T04:58:05.126Z,4.07
2019-03-01T05:00:34.805Z,4.03
2019-03-01T05:03:04.806Z,4.07
2019-03-01T05:05:34.499Z,4.07
2019-03-01T05:08:04.176Z,4.08
2019-03-01T05:10:33.856Z,4.10
2019-03-01T05:13:03.488Z,3.99
2019-03-01T05:15:33.160Z,3.99
2019-03-01T05:18:02.787Z,3.97
2019-03-01T05:20:32.429Z,4.00
2019-03-01T05:23:02.132Z,4.03
2019-03-01T05:25:31.814Z,4.01
2019-03-01T05:28:01.504Z,3.92
2019-03-01T05:30:31.121Z,4.00
2019-03-01T05:33:00.812Z,4.00
2019-03-01T05:35:30.488Z,4.09
2019-03-01T05:38:00.114Z,4.04
2019-03-01T05:40:35.447Z,3.99
2019-03-01T05:43:05.121Z,4.00
2019-03-01T05:45:34.762Z,3.98
2019-03-01T05:48:04.402Z,3.95
2019-03-01T05:50:34.050Z,4.13
2019-03-01T05:53:03.704Z,4.03
2019-03-01T05:55:33.491Z,4.00
2019-03-01T05:58:31.835Z,3.99
2019-03-01T06:01:07.481Z,4.01
2019-03-01T06:03:49.038Z,4.00
2019-03-01T06:06:36.527Z,4.03
2019-03-01T06:09:24.322Z,4.03
2019-03-01T06:12:19.933Z,3.98
2019-03-01T06:15:24.705Z,4.04
2019-03-01T06:18:27.753Z,4.12
2019-03-01T06:21:18.418Z,4.09
2019-03-01T06:24:10.660Z,4.10
2019-03-01T06:27:06.196Z,4.11
2019-03-01T06:29:38.945Z,4.10
2019-03-01T06:32:30.088Z,4.11
2019-03-01T06:35:11.805Z,4.08
2019-03-01T06:38:04.023Z,4.12
2019-03-01T06:40:47.048Z,4.17
2019-03-01T06:43:31.666Z,4.13
2019-03-01T06:46:10.388Z,4.16
2019-03-01T06:48:47.510Z,4.22
2019-03-01T06:51:28.374Z,4.15
2019-03-01T06:53:50.219Z,4.21
2019-03-01T06:56:21.571Z,4.16
2019-03-01T06:58:51.247Z,4.22
2019-03-01T07:01:22.663Z,4.27
2019-03-01T07:03:53.579Z,4.25
2019-03-01T07:06:23.228Z,4.33
2019-03-01T07:08:52.925Z,4.33
2019-03-01T07:11:22.607Z,4.28
2019-03-01T07:13:52.275Z,4.24
2019-03-01T07:16:21.965Z,4.30
2019-03-01T07:18:51.646Z,4.26
2019-03-01T07:21:21.373Z,4.34
2019-03-01T07:23:51.278Z,4.40
2019-03-01T07:26:21.243Z,4.44
2019-03-01T07:28:50.945Z,4.41
2019-03-01T07:31:20.792Z,4.43
2019-03-01T07:33:50.553Z,4.41
2019-03-01T07:36:20.289Z,4.46
2019-03-01T07:38:49.961Z,4.43
2019-03-01T07:41:19.783Z,4.47
2019-03-01T07:43:49.495Z,4.53
2019-03-01T07:46:19.335Z,4.47
2019-03-01T07:48:49.056Z,4.50
2019-03-01T07:51:18.725Z,4.49
2019-03-01T07:53:48.407Z,4.51
2019-03-01T07:56:18.100Z,4.56
2019-03-01T07:58:47.850Z,4.62
2019-03-01T08:01:17.700Z,4.71
2019-03-01T08:03:52.274Z,4.80
2019-03-01T08:06:18.858Z,4.83
2019-03-01T08:08:48.633Z,4.90
2019-03-01T08:11:18.389Z,5.02
2019-03-01T08:13:49.420Z,5.12
2019-03-01T08:16:20.167Z,5.10
2019-03-01T08:18:51.213Z,5.17
2019-03-01T08:21:21.035Z,5.14
2019-03-01T08:23:50.852Z,5.03
2019-03-01T08:26:20.643Z,5.11
2019-03-01T08:28:50.420Z,5.07
2019-03-01T08:31:20.971Z,5.05
2019-03-01T08:33:51.911Z,5.14
2019-03-01T08:36:21.701Z,5.24
2019-03-01T08:38:51.427Z,5.23
2019-03-01T08:41:21.613Z,5.47
2019-03-01T08:43:52.660Z,5.48
2019-03-01T08:46:22.394Z,5.49
2019-03-01T08:48:52.087Z,5.67
2019-03-01T08:51:22.780Z,5.75
2019-03-01T08:53:53.339Z,5.79
2019-03-01T08:56:26.177Z,5.73
2019-03-01T08:58:54.672Z,5.67
2019-03-01T09:01:25.979Z,5.60
2019-03-01T09:04:07.256Z,5.89
2019-03-01T09:06:37.033Z,5.97
2019-03-01T09:09:08.596Z,6.11
2019-03-01T09:11:41.761Z,6.10
2019-03-01T09:14:10.094Z,6.00
2019-03-01T09:16:41.064Z,5.97
2019-03-01T09:19:11.058Z,5.74
2019-03-01T09:21:40.780Z,5.82
2019-03-01T09:24:10.519Z,5.92
2019-03-01T09:26:40.290Z,5.99
2019-03-01T09:29:12.996Z,6.06
2019-03-01T09:31:41.525Z,6.20
2019-03-01T09:34:11.277Z,6.21
2019-03-01T09:36:42.681Z,6.37
2019-03-01T09:39:14.433Z,6.42
2019-03-01T09:41:43.967Z,6.45
2019-03-01T09:44:13.703Z,6.36
2019-03-01T09:46:43.447Z,6.24
2019-03-01T09:49:13.172Z,6.26
2019-03-01T09:51:43.703Z,6.34
2019-03-01T09:54:14.497Z,6.49
2019-03-01T09:56:44.524Z,6.41
2019-03-01T09:59:14.474Z,6.48
2019-03-01T10:01:44.173Z,6.46
2019-03-01T10:04:13.869Z,6.51
2019-03-01T10:06:43.754Z,6.48
2019-03-01T10:09:13.550Z,6.53
2019-03-01T10:11:43.276Z,6.71
2019-03-01T10:14:13.005Z,6.68
2019-03-01T10:16:42.734Z,6.73
2019-03-01T10:19:12.573Z,6.82
2019-03-01T10:21:42.391Z,6.85
2019-03-01T10:24:12.246Z,6.95
2019-03-01T10:26:41.994Z,6.75
2019-03-01T10:29:11.822Z,6.87
2019-03-01T10:31:42.137Z,6.97
2019-03-01T10:34:11.864Z,7.03
2019-03-01T10:36:41.602Z,7.01
2019-03-01T10:39:13.454Z,7.17
2019-03-01T10:41:43.259Z,6.98
2019-03-01T10:44:13.036Z,7.20
2019-03-01T10:46:42.863Z,7.18
2019-03-01T10:49:12.705Z,7.19
2019-03-01T10:51:42.462Z,7.21
2019-03-01T10:54:12.241Z,7.07
2019-03-01T10:56:41.996Z,7.03
2019-03-01T10:59:11.735Z,7.05
2019-03-01T11:01:41.466Z,7.36
2019-03-01T11:04:11.184Z,7.42
2019-03-01T11:06:41.127Z,7.16
2019-03-01T11:09:10.890Z,7.21
2019-03-01T11:11:41.267Z,7.37
2019-03-01T11:14:11.183Z,7.27
2019-03-01T11:16:40.867Z,7.30
2019-03-01T11:19:10.609Z,7.36
2019-03-01T11:21:40.336Z,7.37
2019-03-01T11:24:10.090Z,7.51
2019-03-01T11:26:39.751Z,7.35
2019-03-01T11:29:09.513Z,7.41
2019-03-01T11:31:39.189Z,7.34
2019-03-01T11:34:08.958Z,7.39
2019-03-01T11:36:38.625Z,7.58
2019-03-01T11:39:08.831Z,7.65
2019-03-01T11:41:38.759Z,7.68
2019-03-01T11:44:08.694Z,7.66
2019-03-01T11:46:38.517Z,7.76
2019-03-01T11:49:08.308Z,7.69
2019-03-01T11:51:37.967Z,7.73
2019-03-01T11:54:09.494Z,7.92
2019-03-01T11:56:39.212Z,7.76
2019-03-01T11:59:08.933Z,7.87
2019-03-01T12:01:38.682Z,7.66
2019-03-01T12:04:08.406Z,7.78
2019-03-01T12:06:38.128Z,7.75
2019-03-01T12:09:08.159Z,7.71
2019-03-01T12:11:37.974Z,7.67
2019-03-01T12:14:07.755Z,7.74
2019-03-01T12:16:37.452Z,7.75
2019-03-01T12:19:07.220Z,7.75
2019-03-01T12:21:36.961Z,7.66
2019-03-01T12:24:06.792Z,7.81
2019-03-01T12:26:36.435Z,7.78
2019-03-01T12:29:08.633Z,7.82
2019-03-01T12:31:38.627Z,7.72
2019-03-01T12:34:08.291Z,7.67
2019-03-01T12:36:38.042Z,7.74
2019-03-01T12:39:09.921Z,7.75
2019-03-01T12:41:39.932Z,7.83
2019-03-01T12:44:09.804Z,7.98
2019-03-01T12:46:39.505Z,7.86
2019-03-01T12:49:09.194Z,7.87
2019-03-01T12:51:38.975Z,7.88
2019-03-01T12:54:08.643Z,7.82
2019-03-01T12:56:38.327Z,7.79
2019-03-01T12:59:07.983Z,7.74
2019-03-01T13:01:37.723Z,7.89
2019-03-01T13:04:07.475Z,7.82
2019-03-01T13:06:38.926Z,7.64
2019-03-01T13:09:11.934Z,7.75
2019-03-01T13:11:41.641Z,7.83
2019-03-01T13:14:11.625Z,7.83
2019-03-01T13:16:41.438Z,7.77
2019-03-01T13:19:11.181Z,7.75
2019-03-01T13:21:41.330Z,7.78
2019-03-01T13:24:12.681Z,7.87
2019-03-01T13:26:43.016Z,7.93
2019-03-01T13:29:12.698Z,7.94
2019-03-01T13:31:43.968Z,7.94
2019-03-01T13:34:14.496Z,7.84
2019-03-01T13:36:44.259Z,7.94
2019-03-01T13:39:13.978Z,8.20
2019-03-01T13:41:43.724Z,8.24
2019-03-01T13:44:13.407Z,8.22
2019-03-01T13:46:43.149Z,8.21
2019-03-01T13:49:12.882Z,7.95
2019-03-01T13:51:43.137Z,8.06
2019-03-01T13:54:12.922Z,8.04
2019-03-01T13:56:42.654Z,8.03
2019-03-01T13:59:12.332Z,7.96
2019-03-01T14:01:42.053Z,8.16
2019-03-01T14:04:11.758Z,8.21
2019-03-01T14:06:41.493Z,8.07
2019-03-01T14:09:12.590Z,8.01
2019-03-01T14:11:42.423Z,8.14
2019-03-01T14:14:12.111Z,8.19
2019-03-01T14:16:41.852Z,8.23
2019-03-01T14:19:11.635Z,8.15
2019-03-01T14:21:41.336Z,8.31
2019-03-01T14:24:11.099Z,8.38
2019-03-01T14:26:40.772Z,8.45
2019-03-01T14:29:12.799Z,8.70
2019-03-01T14:31:42.985Z,8.68
2019-03-01T14:34:13.527Z,8.62
2019-03-01T14:36:43.944Z,8.63
2019-03-01T14:39:16.291Z,8.41
2019-03-01T14:41:46.002Z,8.51
2019-03-01T14:44:15.760Z,8.50
2019-03-01T14:46:45.486Z,8.41
2019-03-01T14:49:15.165Z,8.39
2019-03-01T14:51:46.908Z,8.39
2019-03-01T14:54:16.519Z,8.46
2019-03-01T14:56:47.052Z,8.51
2019-03-01T14:59:38.345Z,8.59
2019-03-01T15:02:14.139Z,8.61
2019-03-01T15:04:44.299Z,8.61
2019-03-01T15:07:14.038Z,8.88
2019-03-01T15:09:43.838Z,8.86
2019-03-01T15:12:19.710Z,8.83
2019-03-01T15:14:49.595Z,8.87
2019-03-01T15:17:18.386Z,8.72
2019-03-01T15:19:48.208Z,8.68
2019-03-01T15:22:17.932Z,8.71
2019-03-01T15:24:47.834Z,8.63
2019-03-01T15:27:17.607Z,8.59
2019-03-01T15:29:47.302Z,8.53
2019-03-01T15:32:23.116Z,8.54
2019-03-01T15:34:52.838Z,8.55
2019-03-01T15:37:22.675Z,8.45
2019-03-01T15:39:54.324Z,8.40
2019-03-01T15:42:29.393Z,8.42
2019-03-01T15:45:01.714Z,8.40
2019-03-01T15:47:30.503Z,8.41
2019-03-01T15:50:00.295Z,8.25
2019-03-01T15:52:29.957Z,8.31
2019-03-01T15:54:59.718Z,8.26
2019-03-01T15:57:29.378Z,8.08
2019-03-01T16:00:08.123Z,8.05
2019-03-01T16:02:41.343Z,8.05
2019-03-01T16:05:12.850Z,7.95
2019-03-01T16:07:42.985Z,7.83
2019-03-01T16:10:20.745Z,7.81
2019-03-01T16:12:50.475Z,7.82
2019-03-01T16:15:20.200Z,7.79
2019-03-01T16:17:49.869Z,7.70
2019-03-01T16:20:21.602Z,7.65
2019-03-01T16:22:54.055Z,7.75
2019-03-01T16:25:22.753Z,7.61
2019-03-01T16:27:54.245Z,7.54
2019-03-01T16:30:23.917Z,7.59
2019-03-01T16:32:53.651Z,7.50
2019-03-01T16:35:23.451Z,7.45
2019-03-01T16:37:57.886Z,7.40
2019-03-01T16:40:26.331Z,7.37
2019-03-01T16:42:56.104Z,7.36
2019-03-01T16:45:26.031Z,7.29
2019-03-01T16:48:04.890Z,7.25
2019-03-01T16:50:34.562Z,7.22
2019-03-01T16:53:05.427Z,7.22
2019-03-01T16:55:35.208Z,7.14
2019-03-01T16:58:07.127Z,7.14
2019-03-01T17:00:36.311Z,7.12
2019-03-01T17:03:17.995Z,7.03
2019-03-01T17:05:47.596Z,6.98
2019-03-01T17:08:17.297Z,6.94
2019-03-01T17:10:46.968Z,6.94
2019-03-01T17:13:16.698Z,6.93
2019-03-01T17:15:48.512Z,6.84
2019-03-01T17:18:18.005Z,6.86
2019-03-01T17:20:47.742Z,6.81
2019-03-01T17:23:17.667Z,6.82
2019-03-01T17:25:47.755Z,6.78
2019-03-01T17:28:22.608Z,6.72
2019-03-01T17:30:50.697Z,6.69
2019-03-01T17:33:20.430Z,6.70
2019-03-01T17:38:33.873Z,6.75
2019-03-01T17:41:06.250Z,6.69
2019-03-01T17:43:35.932Z,6.68
2019-03-01T17:46:05.659Z,6.61
2019-03-01T17:48:35.476Z,6.69
2019-03-01T17:51:05.390Z,6.63
2019-03-01T17:53:35.076Z,6.56
2019-03-01T17:56:04.842Z,6.53
2019-03-01T17:58:34.570Z,6.47
2019-03-01T18:01:04.534Z,6.45
2019-03-01T18:03:34.188Z,6.42
2019-03-01T18:06:04.085Z,6.38
2019-03-01T18:08:35.874Z,6.40
2019-03-01T18:11:08.293Z,6.31
2019-03-01T18:13:36.771Z,6.33
2019-03-01T18:16:06.582Z,6.32
2019-03-01T18:18:36.409Z,6.36
2019-03-01T18:21:10.231Z,6.37
2019-03-01T18:23:39.497Z,6.33
2019-03-01T18:26:09.133Z,6.31
2019-03-01T18:28:38.964Z,6.31
2019-03-01T18:31:08.866Z,6.28
2019-03-01T18:33:38.697Z,6.24
2019-03-01T18:36:08.441Z,6.24
2019-03-01T18:38:38.230Z,6.19
2019-03-01T18:41:07.906Z,6.22
2019-03-01T18:43:37.832Z,6.18
2019-03-01T18:46:07.545Z,6.11
2019-03-01T18:48:40.636Z,6.11
2019-03-01T18:51:09.740Z,6.09
2019-03-01T18:53:39.572Z,6.01
2019-03-01T18:56:09.313Z,6.00
2019-03-01T18:58:39.083Z,5.91
2019-03-01T19:01:11.673Z,5.87
2019-03-01T19:03:41.593Z,5.83
2019-03-01T19:06:16.221Z,5.78
2019-03-01T19:08:44.336Z,5.71
2019-03-01T19:11:14.402Z,5.64
2019-03-01T19:13:44.178Z,5.59
2019-03-01T19:16:13.848Z,5.52
2019-03-01T19:18:43.571Z,5.43
2019-03-01T19:21:13.971Z,5.34
2019-03-01T19:23:44.819Z,5.22
2019-03-01T19:26:14.508Z,5.19
2019-03-01T19:28:44.223Z,5.10
2019-03-01T19:31:14.259Z,5.04
2019-03-01T19:33:44.421Z,4.93
2019-03-01T19:36:14.552Z,4.85
2019-03-01T19:38:46.409Z,4.79
2019-03-01T19:41:20.050Z,4.73
2019-03-01T19:43:54.873Z,4.66
2019-03-01T19:46:21.297Z,4.59
2019-03-01T19:48:51.399Z,4.55
2019-03-01T19:51:22.025Z,4.38
2019-03-01T19:53:52.018Z,4.42
2019-03-01T19:56:25.783Z,4.40
2019-03-01T19:58:54.767Z,4.33
2019-03-01T20:01:25.218Z,4.36
2019-03-01T20:03:57.053Z,4.39
2019-03-01T20:06:26.500Z,4.42
2019-03-01T20:08:56.294Z,4.36
2019-03-01T20:11:27.517Z,4.23
2019-03-01T20:13:57.396Z,4.39
2019-03-01T20:16:27.294Z,4.27
2019-03-01T20:18:57.340Z,4.21
2019-03-01T20:21:27.488Z,4.05
2019-03-01T20:24:01.832Z,4.15
2019-03-01T20:26:30.662Z,3.92
2019-03-01T20:29:00.383Z,3.96
2019-03-01T20:31:30.179Z,4.09
2019-03-01T20:34:01.814Z,4.10
2019-03-01T20:36:31.602Z,4.14
2019-03-01T20:39:01.394Z,4.16
2019-03-01T20:41:31.456Z,4.20
2019-03-01T20:44:01.505Z,4.22
2019-03-01T20:46:31.270Z,4.31
2019-03-01T20:49:03.873Z,4.24
2019-03-01T20:51:32.554Z,4.22
2019-03-01T20:54:02.373Z,4.20
2019-03-01T20:56:32.206Z,4.17
2019-03-01T20:59:01.954Z,4.15
2019-03-01T21:01:33.726Z,4.14
2019-03-01T21:04:04.869Z,4.14
2019-03-01T21:06:37.414Z,4.11
2019-03-01T21:09:06.989Z,4.08
2019-03-01T21:11:36.904Z,4.07
2019-03-01T21:14:06.641Z,4.06
2019-03-01T21:16:36.557Z,4.02
2019-03-01T21:19:08.827Z,4.11
2019-03-01T21:21:37.897Z,4.00
2019-03-01T21:24:10.837Z,4.03
2019-03-01T21:26:40.554Z,4.07
2019-03-01T21:29:12.437Z,4.09
2019-03-01T21:31:41.893Z,4.05
2019-03-01T21:34:11.599Z,4.01
2019-03-01T21:36:41.380Z,4.03
2019-03-01T21:39:11.388Z,3.99
2019-03-01T21:41:41.473Z,3.96
2019-03-01T21:44:13.626Z,3.98
2019-03-01T21:46:43.685Z,3.93
2019-03-01T21:49:13.577Z,3.90
2019-03-01T21:51:43.739Z,3.88
2019-03-01T21:54:16.487Z,3.94
2019-03-01T21:56:55.372Z,3.86
2019-03-01T21:59:18.561Z,3.83
2019-03-01T22:01:48.503Z,3.80
2019-03-01T22:04:18.148Z,3.79
2019-03-01T22:06:47.916Z,3.74
2019-03-01T22:09:20.642Z,3.66
2019-03-01T22:11:50.102Z,3.62
2019-03-01T22:14:19.804Z,3.55
2019-03-01T22:16:49.554Z,3.52
2019-03-01T22:19:19.225Z,3.42
2019-03-01T22:21:48.962Z,3.37
2019-03-01T22:24:18.599Z,3.32
2019-03-01T22:26:49.567Z,3.29
2019-03-01T22:29:20.170Z,3.19
2019-03-01T22:31:49.865Z,3.16
2019-03-01T22:34:19.811Z,3.08
2019-03-01T22:36:52.891Z,3.01
2019-03-01T22:39:21.010Z,2.96
2019-03-01T22:41:50.688Z,2.90
2019-03-01T22:44:20.501Z,2.91
2019-03-01T22:46:50.646Z,2.85
2019-03-01T22:49:20.373Z,2.79
2019-03-01T22:51:52.904Z,2.73
2019-03-01T22:54:21.604Z,2.63
2019-03-01T22:56:51.468Z,2.56
2019-03-01T22:59:21.156Z,2.54
2019-03-01T23:01:51.015Z,2.46
2019-03-01T23:04:20.866Z,2.41
2019-03-01T23:07:01.755Z,2.38
2019-03-01T23:09:33.966Z,2.36
2019-03-01T23:12:04.623Z,2.29
2019-03-01T23:14:35.174Z,2.22
2019-03-01T23:17:04.959Z,2.15
2019-03-01T23:19:36.262Z,2.07
2019-03-01T23:22:07.657Z,2.01
2019-03-01T23:24:43.375Z,1.97
2019-03-01T23:27:13.486Z,2.04
2019-03-01T23:29:43.227Z,1.94
2019-03-01T23:32:15.454Z,1.78
2019-03-01T23:34:44.485Z,1.87
2019-03-01T23:37:14.530Z,1.91
2019-03-01T23:39:44.622Z,1.97
2019-03-01T23:42:17.328Z,2.06
2019-03-01T23:44:46.284Z,2.08
2019-03-01T23:47:15.966Z,2.09
2019-03-01T23:49:45.661Z,2.04
2019-03-01T23:52:15.480Z,2.03
2019-03-01T23:54:45.767Z,2.00
2019-03-01T23:57:16.870Z,1.92
2019-03-01T23:59:46.846Z,1.89
